Main page
METAR-TAF:

METAR-TAF

Airports :

Bournemouth Airport

Bournemouth, England

latitude: 50-47N, longitude: 001-50W, elevation: 11 m

Current weather observation

The report was made 20 minutes ago, at 19:20 UTC
Wind 10 kt from the West
Temperature 8°C
Humidity 93%
Pressure 1025 hPa
Visibility 10 km or more
Broken clouds at a height of 1200 ft

METAR: EGHH 291920Z 26010KT 9999 BKN012 08/07 Q1025

Time: 19:40 (19:40 UTC)

Forecast

The report was made 2 hours and 41 minutes ago, at 16:59 UTC
Forecast valid from 29 at 18 UTC to 29 at 22 UTC
Wind 6 kt from the West/Southwest
Visibility 10 km or more
Scattered clouds at a height of 3000 ft
Probability 30% :
Temporary
from 29 at 18 UTC to 29 at 22 UTC
Visibility: 3000 m
Broken clouds at a height of 800 ft
light rain, drizzle

TAF: EGHH 291659Z 2918/2922 25006KT 9999 SCT030 PROB30 TEMPO 2918/2922 3000 -RADZ BKN008

Weather observations and forecasts of more than 4000 airports (METAR and TAF reports).

The available stations are represented by yellow and red dots on the map.

Hover mouse over dot to see the name of the station.

Then click to see weather observations and forecasts.

To change the map : click on the green buttons with a black cross to zoom in, on the green button with a dash to zoom out, or on the green arrows for adjacent maps.


METAR-TAF: